createdAt,value
2022-08-22T00:02:28.809Z,101294.91
2022-08-22T00:02:55.670Z,101346.75
2022-08-22T00:05:53.364Z,101296.47
2022-08-22T00:09:28.907Z,101293.84
2022-08-22T00:12:54.771Z,101291.63
2022-08-22T00:16:24.812Z,101288.56
2022-08-22T00:20:03.788Z,101277.66
2022-08-22T00:23:55.862Z,101260.22
2022-08-22T00:27:22.780Z,101264.97
2022-08-22T00:30:46.817Z,101260.81
2022-08-22T00:34:23.769Z,101261.44
2022-08-22T00:37:52.837Z,101253.97
2022-08-22T00:41:24.810Z,101262.31
2022-08-22T00:44:56.812Z,101276.63
2022-08-22T00:48:36.792Z,101273.00
2022-08-22T00:51:59.839Z,101256.31
2022-08-22T00:55:25.789Z,101261.16
2022-08-22T00:59:23.256Z,101253.47
2022-08-22T01:02:52.538Z,101246.91
2022-08-22T01:06:21.839Z,101245.34
2022-08-22T01:09:49.799Z,101245.84
2022-08-22T01:13:30.861Z,101237.00
2022-08-22T01:16:53.824Z,101234.34
2022-08-22T01:20:16.855Z,101226.41
2022-08-22T01:24:04.790Z,101217.25
2022-08-22T01:27:45.893Z,101226.41
2022-08-22T01:31:26.776Z,101223.91
2022-08-22T01:34:56.808Z,101224.97
2022-08-22T01:38:23.862Z,101207.78
2022-08-22T01:41:52.852Z,101199.69
2022-08-22T01:45:18.839Z,101185.78
2022-08-22T01:48:54.792Z,101189.00
2022-08-22T01:52:40.873Z,101173.59
2022-08-22T01:56:13.806Z,101174.59
2022-08-22T01:59:42.461Z,101172.50
2022-08-22T02:03:21.819Z,101161.06
2022-08-22T02:06:46.848Z,101152.38
2022-08-22T02:10:26.842Z,101148.81
2022-08-22T02:13:57.873Z,101146.34
2022-08-22T02:17:25.790Z,101133.28
2022-08-22T02:20:55.846Z,101133.56
2022-08-22T02:24:19.802Z,101124.34
2022-08-22T02:27:48.842Z,101125.91
2022-08-22T02:31:17.795Z,101127.19
2022-08-22T02:34:42.845Z,101113.44
2022-08-22T02:38:14.848Z,101124.50
2022-08-22T02:41:37.833Z,101130.66
2022-08-22T02:45:04.834Z,101123.00
2022-08-22T02:48:45.825Z,101114.28
2022-08-22T02:52:48.838Z,101121.03
2022-08-22T02:56:25.863Z,101116.94
2022-08-22T02:59:53.826Z,101128.28
2022-08-22T03:03:22.517Z,101143.88
2022-08-22T03:06:52.830Z,101138.03
2022-08-22T03:10:33.852Z,101140.28
2022-08-22T03:14:04.811Z,101138.91
2022-08-22T03:17:33.885Z,101140.09
2022-08-22T03:20:56.880Z,101129.81
2022-08-22T03:24:26.828Z,101123.50
2022-08-22T03:27:48.224Z,101105.00
2022-08-22T03:31:13.848Z,101121.34
2022-08-22T03:34:38.870Z,101126.41
2022-08-22T03:38:00.891Z,101124.09
2022-08-22T03:41:25.834Z,101133.31
2022-08-22T03:45:01.935Z,101138.19
2022-08-22T03:48:46.884Z,101147.91
2022-08-22T03:52:27.842Z,101153.81
2022-08-22T03:55:54.890Z,101148.94
2022-08-22T03:59:34.864Z,101155.78
2022-08-22T04:03:18.888Z,101164.81
2022-08-22T04:07:00.852Z,101159.94
2022-08-22T04:10:34.904Z,101156.84
2022-08-22T04:14:04.842Z,101157.06
2022-08-22T04:17:35.881Z,101153.72
2022-08-22T04:21:10.850Z,101153.22
2022-08-22T04:24:37.914Z,101152.47
2022-08-22T04:28:12.871Z,101160.47
2022-08-22T04:31:37.938Z,101148.88
2022-08-22T04:35:10.865Z,101139.44
2022-08-22T04:38:55.930Z,101144.78
2022-08-22T04:42:33.300Z,101138.66
2022-08-22T04:45:58.940Z,101150.50
2022-08-22T04:49:38.965Z,101149.25
2022-08-22T04:53:07.921Z,101161.06
2022-08-22T04:56:34.917Z,101157.25
2022-08-22T04:59:57.891Z,101160.38
2022-08-22T05:03:22.923Z,101167.97
2022-08-22T05:06:47.922Z,101158.88
2022-08-22T05:10:14.918Z,101157.19
2022-08-22T05:13:48.898Z,101164.88
2022-08-22T05:17:12.924Z,101157.91
2022-08-22T05:20:39.882Z,101172.75
2022-08-22T05:24:05.909Z,101172.72
2022-08-22T05:27:38.916Z,101174.91
2022-08-22T05:31:01.952Z,101175.13
2022-08-22T05:34:36.938Z,101184.06
2022-08-22T05:38:00.927Z,101187.59
2022-08-22T05:41:25.960Z,101187.59
2022-08-22T05:44:50.931Z,101188.88
2022-08-22T05:48:24.931Z,101195.13
2022-08-22T05:51:50.940Z,101203.41
2022-08-22T05:55:19.929Z,101209.44
2022-08-22T05:58:45.963Z,101209.13
2022-08-22T06:02:21.294Z,101216.69
2022-08-22T06:05:45.921Z,101219.50
2022-08-22T06:09:34.889Z,101232.75
2022-08-22T06:13:01.987Z,101243.81
2022-08-22T06:16:47.479Z,101250.66
2022-08-22T06:20:11.964Z,101248.97
2022-08-22T06:23:37.954Z,101253.03
2022-08-22T06:27:01.973Z,101263.66
2022-08-22T06:30:26.935Z,101272.31
2022-08-22T06:33:51.980Z,101275.28
2022-08-22T06:37:17.926Z,101278.41
2022-08-22T06:40:40.976Z,101266.97
2022-08-22T06:44:04.948Z,101267.34
2022-08-22T06:47:32.933Z,101271.78
2022-08-22T06:50:57.088Z,101273.19
2022-08-22T06:54:20.936Z,101270.59
2022-08-22T06:57:45.975Z,101277.78
2022-08-22T07:01:13.925Z,101282.34
2022-08-22T07:04:39.963Z,101280.91
2022-08-22T07:08:02.952Z,101279.28
2022-08-22T07:11:29.953Z,101282.00
2022-08-22T07:14:59.958Z,101278.13
2022-08-22T07:18:30.000Z,101286.22
2022-08-22T07:21:57.951Z,101282.00
2022-08-22T07:25:24.971Z,101279.47
2022-08-22T07:28:58.066Z,101290.06
2022-08-22T07:32:21.980Z,101300.00
2022-08-22T07:35:55.000Z,101294.91
2022-08-22T07:39:25.965Z,101302.88
2022-08-22T07:42:55.971Z,101295.81
2022-08-22T07:46:27.960Z,101293.81
2022-08-22T07:49:51.997Z,101294.94
2022-08-22T07:53:41.994Z,101296.22
2022-08-22T07:57:09.026Z,101288.97
2022-08-22T08:00:32.980Z,101284.53
2022-08-22T08:03:57.024Z,101280.13
2022-08-22T08:07:20.980Z,101284.31
2022-08-22T08:10:47.000Z,101285.66
2022-08-22T08:14:07.551Z,101279.31
2022-08-22T08:17:32.385Z,101282.00
2022-08-22T08:20:55.970Z,101285.94
2022-08-22T08:24:19.998Z,101290.91
2022-08-22T08:28:04.957Z,101296.44
2022-08-22T08:31:49.025Z,101300.75
2022-08-22T08:35:11.995Z,101291.19
2022-08-22T08:38:36.991Z,101305.09
2022-08-22T08:42:02.982Z,101303.88
2022-08-22T08:45:32.014Z,101301.88
2022-08-22T08:49:01.959Z,101308.22
2022-08-22T08:52:52.838Z,101302.41
2022-08-22T08:56:19.798Z,101297.56
2022-08-22T08:59:52.985Z,101297.69
2022-08-22T09:03:30.559Z,101307.47
2022-08-22T09:10:51.024Z,101318.56
2022-08-22T09:14:34.026Z,101320.38
2022-08-22T09:18:07.998Z,101320.25
2022-08-22T09:21:46.029Z,101318.09
2022-08-22T09:25:27.186Z,101313.59
2022-08-22T09:29:03.050Z,101314.91
2022-08-22T09:32:28.993Z,101313.16
2022-08-22T09:36:05.405Z,101303.50
2022-08-22T09:39:33.033Z,101304.47
2022-08-22T09:43:23.999Z,101311.28
2022-08-22T09:46:58.059Z,101310.19
2022-08-22T09:50:29.496Z,101303.09
2022-08-22T09:54:12.008Z,101303.09
2022-08-22T09:57:37.969Z,101308.13
2022-08-22T10:01:12.107Z,101309.13
2022-08-22T10:04:38.003Z,101304.94
2022-08-22T10:08:26.165Z,101312.41
2022-08-22T10:11:54.010Z,101305.22
2022-08-22T10:15:36.041Z,101300.72
2022-08-22T10:19:19.014Z,101295.78
2022-08-22T10:22:44.586Z,101290.44
2022-08-22T10:26:26.088Z,101307.56
2022-08-22T10:30:02.078Z,101312.66
2022-08-22T10:33:30.034Z,101301.66
2022-08-22T10:37:14.055Z,101294.53
2022-08-22T10:40:55.651Z,101292.06
2022-08-22T10:44:41.028Z,101293.47
2022-08-22T10:48:13.081Z,101299.56
2022-08-22T10:51:41.023Z,101295.06
2022-08-22T10:55:09.909Z,101295.84
2022-08-22T10:58:39.042Z,101297.94
2022-08-22T11:02:21.053Z,101300.41
2022-08-22T11:05:54.041Z,101303.53
2022-08-22T11:09:21.051Z,101290.69
2022-08-22T11:12:49.044Z,101301.66
2022-08-22T11:16:15.035Z,101296.56
2022-08-22T11:19:53.046Z,101297.63
2022-08-22T11:23:36.059Z,101297.63
2022-08-22T11:27:25.439Z,101294.13
2022-08-22T11:31:07.495Z,101292.69
2022-08-22T11:34:49.025Z,101293.50
2022-08-22T11:38:18.086Z,101297.63
2022-08-22T11:41:43.012Z,101294.28
2022-08-22T11:45:16.826Z,101300.13
2022-08-22T11:48:47.083Z,101300.16
2022-08-22T11:52:31.049Z,101305.09
2022-08-22T11:56:14.094Z,101309.03
2022-08-22T11:59:40.238Z,101314.22
2022-08-22T12:03:24.110Z,101304.56
2022-08-22T12:07:00.089Z,101307.81
2022-08-22T12:10:26.015Z,101316.88
2022-08-22T12:13:52.088Z,101313.75
2022-08-22T12:17:49.265Z,101321.22
2022-08-22T12:21:17.075Z,101328.88
2022-08-22T12:24:50.061Z,101324.31
2022-08-22T12:28:33.083Z,101323.69
2022-08-22T12:32:15.073Z,101319.56
2022-08-22T12:35:42.079Z,101322.44
2022-08-22T12:39:17.294Z,101328.44
2022-08-22T12:42:46.178Z,101323.69
2022-08-22T12:46:13.107Z,101331.06
2022-08-22T12:49:49.950Z,101338.50
2022-08-22T12:53:25.096Z,101331.28
2022-08-22T12:57:23.445Z,101325.53
2022-08-22T13:00:42.177Z,101319.13
2022-08-22T13:04:09.084Z,101323.88
2022-08-22T13:07:52.113Z,101320.19
2022-08-22T13:11:23.700Z,101323.06
2022-08-22T13:14:48.088Z,101316.69
2022-08-22T13:18:29.487Z,101310.69
2022-08-22T13:21:55.092Z,101319.16
2022-08-22T13:25:26.179Z,101318.34
2022-08-22T13:29:25.805Z,101321.22
2022-08-22T13:32:51.083Z,101312.97
2022-08-22T13:36:23.141Z,101307.59
2022-08-22T13:39:51.172Z,101301.25
2022-08-22T13:43:21.117Z,101304.72
2022-08-22T13:47:10.815Z,101304.31
2022-08-22T13:50:29.077Z,101308.06
2022-08-22T13:54:00.763Z,101302.50
2022-08-22T13:57:33.088Z,101303.13
2022-08-22T14:01:09.107Z,101314.00
2022-08-22T14:04:49.113Z,101317.72
2022-08-22T14:08:31.144Z,101311.31
2022-08-22T14:11:56.128Z,101302.28
2022-08-22T14:15:20.104Z,101295.44
2022-08-22T14:18:50.116Z,101295.03
2022-08-22T14:22:14.357Z,101292.34
2022-08-22T14:25:39.213Z,101288.84
2022-08-22T14:29:04.091Z,101291.50
2022-08-22T14:32:35.055Z,101288.41
2022-08-22T14:36:02.116Z,101283.66
2022-08-22T14:39:26.125Z,101288.16
2022-08-22T14:43:12.113Z,101291.00
2022-08-22T14:46:45.114Z,101288.13
2022-08-22T14:50:17.109Z,101297.75
2022-08-22T14:53:44.109Z,101292.13
2022-08-22T14:57:10.104Z,101282.56
2022-08-22T15:00:50.064Z,101275.28
2022-08-22T15:04:19.494Z,101277.97
2022-08-22T15:07:46.127Z,101271.88
2022-08-22T15:11:21.117Z,101266.50
2022-08-22T15:14:52.374Z,101267.13
2022-08-22T15:18:16.165Z,101259.75
2022-08-22T15:21:37.200Z,101269.34
2022-08-22T15:25:09.130Z,101267.69
2022-08-22T15:28:52.583Z,101259.34
2022-08-22T15:32:17.120Z,101273.06
2022-08-22T15:35:46.130Z,101275.47
2022-08-22T15:39:10.119Z,101273.94
2022-08-22T15:42:40.132Z,101273.53
2022-08-22T15:46:07.172Z,101283.00
2022-08-22T15:49:37.109Z,101279.91
2022-08-22T15:53:27.206Z,101280.94
2022-08-22T15:56:57.125Z,101294.78
2022-08-22T16:00:44.933Z,101288.22
2022-08-22T16:04:10.098Z,101302.28
2022-08-22T16:07:39.148Z,101297.03
2022-08-22T16:11:07.155Z,101309.25
2022-08-22T16:14:37.213Z,101310.47
2022-08-22T16:18:01.155Z,101310.25
2022-08-22T16:21:30.130Z,101306.28
2022-08-22T16:25:13.178Z,101309.34
2022-08-22T16:28:57.951Z,101307.25
2022-08-22T16:32:23.166Z,101319.03
2022-08-22T16:36:04.245Z,101311.16
2022-08-22T16:39:36.139Z,101315.50
2022-08-22T16:43:00.136Z,101316.50
2022-08-22T16:46:41.176Z,101327.47
2022-08-22T16:50:04.161Z,101333.00
2022-08-22T16:53:35.184Z,101342.50
2022-08-22T16:57:01.168Z,101333.59
2022-08-22T17:00:29.164Z,101333.78
2022-08-22T17:03:58.189Z,101340.81
2022-08-22T17:07:29.146Z,101340.81
2022-08-22T17:10:56.130Z,101351.72
2022-08-22T17:14:34.130Z,101355.22
2022-08-22T17:18:11.534Z,101357.53
2022-08-22T17:21:59.169Z,101349.47
2022-08-22T17:25:37.157Z,101360.22
2022-08-22T17:29:07.119Z,101360.59
2022-08-22T17:32:44.125Z,101363.28
2022-08-22T17:36:34.253Z,101365.88
2022-08-22T17:40:03.190Z,101379.09
2022-08-22T17:43:49.299Z,101383.53
2022-08-22T17:47:16.149Z,101394.47
2022-08-22T17:50:46.196Z,101387.19
2022-08-22T17:54:09.158Z,101393.19
2022-08-22T17:57:53.151Z,101386.53
2022-08-22T18:01:22.194Z,101397.53
2022-08-22T18:04:50.191Z,101406.47
2022-08-22T18:12:00.145Z,101423.28
2022-08-22T18:15:28.177Z,101431.59
2022-08-22T18:18:55.198Z,101429.78
2022-08-22T18:22:20.181Z,101426.72
2022-08-22T18:25:46.115Z,101423.19
2022-08-22T18:29:15.156Z,101417.69
2022-08-22T18:32:56.261Z,101428.25
2022-08-22T18:36:28.213Z,101432.66
2022-08-22T18:40:15.252Z,101438.03
2022-08-22T18:43:43.177Z,101436.97
2022-08-22T18:47:07.167Z,101445.94
2022-08-22T18:50:46.210Z,101444.69
2022-08-22T18:54:15.171Z,101440.00
2022-08-22T18:57:55.165Z,101433.41
2022-08-22T19:01:21.278Z,101429.88
2022-08-22T19:05:20.182Z,101440.81
2022-08-22T19:08:49.330Z,101445.59
2022-08-22T19:12:17.207Z,101457.75
2022-08-22T19:15:59.219Z,101475.94
2022-08-22T19:19:23.755Z,101488.28
2022-08-22T19:22:45.215Z,101504.81
2022-08-22T19:26:33.137Z,101519.88
2022-08-22T19:29:49.184Z,101518.41
2022-08-22T19:33:14.156Z,101512.19
2022-08-22T19:36:45.155Z,101498.72
2022-08-22T19:40:15.340Z,101495.00
2022-08-22T19:43:40.213Z,101499.75
2022-08-22T19:47:14.286Z,101490.69
2022-08-22T19:50:37.231Z,101483.25
2022-08-22T19:54:02.226Z,101479.19
2022-08-22T19:57:28.190Z,101489.81
2022-08-22T20:00:57.233Z,101502.28
2022-08-22T20:04:28.195Z,101499.78
2022-08-22T20:08:01.203Z,101502.69
2022-08-22T20:11:39.206Z,101510.00
2022-08-22T20:15:02.251Z,101510.75
2022-08-22T20:19:05.136Z,101514.59
2022-08-22T20:22:12.246Z,101525.66
2022-08-22T20:25:42.488Z,101564.81
2022-08-22T20:29:08.301Z,101567.34
2022-08-22T20:32:32.248Z,101574.63
2022-08-22T20:35:56.191Z,101588.50
2022-08-22T20:39:23.230Z,101587.41
2022-08-22T20:42:40.217Z,101590.75
2022-08-22T20:46:27.243Z,101596.03
2022-08-22T20:49:51.254Z,101592.50
2022-08-22T20:53:28.235Z,101598.19
2022-08-22T20:56:53.505Z,101591.97
2022-08-22T21:00:21.196Z,101595.31
2022-08-22T21:03:56.217Z,101596.34
2022-08-22T21:07:18.200Z,101613.06
2022-08-22T21:11:01.246Z,101607.53
2022-08-22T21:14:34.187Z,101605.16
2022-08-22T21:17:57.238Z,101615.69
2022-08-22T21:21:27.254Z,101610.28
2022-08-22T21:24:43.807Z,101611.22
2022-08-22T21:28:03.243Z,101605.13
2022-08-22T21:31:28.209Z,101598.41
2022-08-22T21:34:58.357Z,101599.78
2022-08-22T21:38:21.217Z,101606.06
2022-08-22T21:41:49.229Z,101610.41
2022-08-22T21:45:13.250Z,101598.06
2022-08-22T21:48:47.236Z,101602.66
2022-08-22T21:52:11.214Z,101611.72
2022-08-22T21:55:47.278Z,101616.94
2022-08-22T21:59:51.450Z,101611.88
2022-08-22T22:03:29.292Z,101607.81
2022-08-22T22:06:52.275Z,101606.22
2022-08-22T22:10:15.301Z,101613.66
2022-08-22T22:13:40.281Z,101607.19
2022-08-22T22:17:03.226Z,101601.56
2022-08-22T22:20:27.290Z,101603.59
2022-08-22T22:23:43.814Z,101590.72
2022-08-22T22:27:01.291Z,101596.84
2022-08-22T22:30:24.271Z,101587.81
2022-08-22T22:33:48.300Z,101583.78
2022-08-22T22:37:12.233Z,101587.56
2022-08-22T22:40:35.267Z,101597.91
2022-08-22T22:43:59.299Z,101596.06
2022-08-22T22:47:23.247Z,101598.78
2022-08-22T22:50:49.320Z,101595.22
2022-08-22T22:54:13.270Z,101604.53
2022-08-22T22:57:41.424Z,101601.22
2022-08-22T23:01:07.321Z,101605.22
2022-08-22T23:04:30.308Z,101598.69
2022-08-22T23:07:54.277Z,101608.63
2022-08-22T23:11:23.327Z,101612.50
2022-08-22T23:14:46.287Z,101610.72
2022-08-22T23:18:10.279Z,101621.47
2022-08-22T23:21:36.268Z,101624.06
2022-08-22T23:24:59.278Z,101619.81
2022-08-22T23:28:22.267Z,101629.00
2022-08-22T23:31:46.342Z,101629.06
2022-08-22T23:35:11.335Z,101625.78
2022-08-22T23:38:34.246Z,101623.56
2022-08-22T23:41:57.296Z,101632.69
2022-08-22T23:45:20.249Z,101622.94
2022-08-22T23:48:43.331Z,101618.28
2022-08-22T23:52:06.297Z,101620.34
2022-08-22T23:55:29.341Z,101610.44
2022-08-22T23:58:53.343Z,101604.84
